Аэропорт: Белгород . Белгород

ICAO: UUOB

METAR:
2024-04-22 23:00:00
UUOB 222300Z 35002MPS 9999 BKN047 07/04 Q1021 R29/010070 NOSIG
TAF:
Информация по данной станции не доступна